Crookhaven, Ireland
Current Conditions -  °F | °C
As of 6:00 PM on Sunday 21 Dec 2014 (Local Time) from EIKY Reporting Station
Light Rain Light Rain  
Wind Chill: 54°   Ceiling: 1100
Heat Index: 54°   Visibility: 4mi
Dew Point: 52°   Wind: 20mph
Humidity: 94%   Direction: 240°WSW
Pressure: 30.12"   Gusts: NA
Location:  51.47°N, 9.73°W
Report Text: EIKY 211700Z 24017KT 6000 -RA SCT009 BKN011 OVC013 12/11 Q1020
Loading
Personal Weather Stations






























Interactive Weather Map New forecast layout! Learn more

10-Day Weather Forecast

Advertisements
Track Severe Weather on mobile